Time;durP1;ratioP1;P1;durP2;ratioP2;P2;SDS_P1;SDS_P2;PMS_P1;PMS_P2;Temp;Humidity;BMP_temperature;BMP_pressure;BME280_temperature;BME280_humidity;BME280_pressure;Samples;Min_cycle;Max_cycle;Signal;HPM_P1;HPM_P2
2022/05/03 00:01:21;;;;;;;14.23;9.35;;;;;;;11.35;75.67;100929.16;6035145;23;20026;-75
2022/05/03 00:04:37;;;;;;;;;;;;;;;;;;;;;
2022/05/03 00:10:58;;;;;;;16.58;9.73;;;;;;;11.36;76.17;100924.53;6144411;23;20021;-74
2022/05/03 00:17:12;;;;;;;;;;;;;;;;;;;;;
2022/05/03 00:20:34;;;;;;;13.50;9.43;;;;;;;11.18;75.78;100892.84;6162906;23;20056;-74
2022/05/03 00:27:14;;;;;;;22.23;13.75;;;;;;;11.24;76.60;100910.97;6063336;23;20015;-74
2022/05/03 00:37:19;;;;;;;15.57;11.13;;;;;;;11.13;76.60;100925.66;5907311;24;20012;-76
2022/05/03 00:40:29;;;;;;;19.73;11.32;;;;;;;10.80;77.18;100872.75;5933387;24;20012;-74
2022/05/03 00:44:03;;;;;;;;;;;;;;;;;;;;;
2022/05/03 00:47:20;;;;;;;20.60;13.05;;;;;;;11.02;77.00;100908.28;5978714;23;20091;-74
2022/05/03 00:53:53;;;;;;;27.20;15.40;;;;;;;10.98;77.62;100902.50;5862952;24;20042;-74
2022/05/03 00:57:24;;;;;;;22.88;14.35;;;;;;;11.03;77.83;100911.88;5873436;24;20013;-75
2022/05/03 01:00:49;;;;;;;28.08;15.27;;;;;;;10.79;78.30;100885.63;5923693;24;20008;-75
2022/05/03 01:03:26;;;;;;;27.60;15.77;;;;;;;10.92;78.24;100908.19;5974720;23;20461;-75
2022/05/03 01:06:01;;;;;;;25.85;15.98;;;;;;;10.98;78.67;100912.63;6015520;23;20051;-76
2022/05/03 01:08:26;;;;;;;;;;;;;;;10.98;78.88;100912.63;6242289;22;20011;-76
2022/05/03 01:11:30;;;;;;;25.20;15.07;;;;;;;10.98;78.69;100918.94;6310089;22;20393;-75
2022/05/03 01:14:15;;;;;;;27.92;15.88;;;;;;;10.90;78.87;100893.94;6156237;23;20012;-75
2022/05/03 01:16:52;;;;;;;30.20;17.33;;;;;;;10.93;78.38;100898.91;6158709;23;20032;-74
2022/05/03 01:20:03;;;;;;;26.63;15.25;;;;;;;10.96;78.80;100901.94;6264684;22;20015;-74
2022/05/03 01:23:01;;;;;;;29.38;16.00;;;;;;;10.98;78.75;100912.63;6253335;22;20007;-75
2022/05/03 01:25:55;;;;;;;23.40;13.95;;;;;;;10.96;79.14;100901.94;6283019;22;20414;-74
2022/05/03 01:28:29;;;;;;;20.00;13.45;;;;;;;10.94;79.07;100895.91;6304755;22;20015;-74
2022/05/03 01:30:58;;;;;;;24.23;13.60;;;;;;;10.89;78.83;100893.09;6280506;22;20007;-74
2022/05/03 01:33:33;;;;;;;22.35;13.50;;;;;;;10.83;78.67;100884.03;6281623;22;20373;-73
2022/05/03 01:36:03;;;;;;;21.50;12.18;;;;;;;10.87;78.56;100889.78;6279506;22;20504;-75
2022/05/03 01:38:56;;;;;;;21.88;14.02;;;;;;;10.84;78.91;100895.78;6257725;22;20032;-75
2022/05/03 01:41:33;;;;;;;19.10;12.10;;;;;;;10.92;79.27;100898.06;6280405;22;20011;-75
2022/05/03 01:44:53;;;;;;;17.17;10.05;;;;;;;10.91;79.09;100904.63;6278128;22;20014;-74
2022/05/03 01:48:05;;;;;;;10.82;7.47;;;;;;;10.93;78.87;100904.38;6184493;23;20601;-75
2022/05/03 01:51:05;;;;;;;14.98;9.32;;;;;;;10.94;78.78;100900.56;6183343;23;20000;-74
2022/05/03 01:53:46;;;;;;;12.02;8.05;;;;;;;10.85;78.79;100875.56;6184178;23;20001;-75
2022/05/03 01:56:33;;;;;;;;;;;;;;;10.96;78.91;100893.72;6183984;23;20092;-73
2022/05/03 01:59:29;;;;;;;25.15;14.68;;;;;;;10.89;78.57;100882.16;6181756;23;19892;-74
2022/05/03 02:02:24;;;;;;;22.33;13.60;;;;;;;10.86;78.72;100882.66;6182583;23;20092;-74
2022/05/03 02:05:08;;;;;;;19.10;11.63;;;;;;;10.85;78.92;100886.50;6182915;23;20008;-74
2022/05/03 02:07:56;;;;;;;16.10;10.30;;;;;;;10.77;79.10;100895.97;6198518;22;20007;-74
2022/05/03 02:10:58;;;;;;;19.98;11.82;;;;;;;10.69;79.47;100898.34;6280148;22;20515;-74
2022/05/03 02:17:25;;;;;;;22.15;13.38;;;;;;;10.55;79.69;100885.03;6307161;22;20042;-74
2022/05/03 02:20:42;;;;;;;22.38;14.60;;;;;;;10.57;79.59;100891.09;6142108;22;20014;-73
2022/05/03 02:23:35;;;;;;;26.45;15.27;;;;;;;10.57;79.85;100890.25;6183186;23;20008;-73
2022/05/03 02:26:24;;;;;;;25.83;15.25;;;;;;;10.47;80.22;100878.13;6158785;23;20009;-75
2022/05/03 02:29:01;;;;;;;21.40;14.13;;;;;;;10.42;80.76;100872.56;6182203;23;20004;-74
2022/05/03 02:32:06;;;;;;;26.20;15.27;;;;;;;10.45;80.55;100887.66;6159538;23;19992;-74
2022/05/03 02:34:40;;;;;;;25.55;16.02;;;;;;;10.38;80.47;100881.53;6180423;23;20005;-73
2022/05/03 02:37:23;;;;;;;20.85;12.65;;;;;;;10.25;80.61;100878.09;6179603;23;20032;-74
2022/05/03 02:39:59;;;;;;;18.27;11.23;;;;;;;10.24;80.52;100890.09;6249235;22;20695;-74
2022/05/03 02:42:26;;;;;;;22.30;13.68;;;;;;;10.10;81.25;100866.94;6242343;23;20498;-73
2022/05/03 02:44:57;;;;;;;21.13;13.50;;;;;;;10.15;81.38;100886.16;6219593;23;20082;-74
2022/05/03 02:47:56;;;;;;;26.90;14.93;;;;;;;10.05;81.60;100875.06;6241988;23;20018;-75
2022/05/03 02:50:30;;;;;;;27.90;15.10;;;;;;;9.99;81.69;100876.06;6270607;22;20012;-74
2022/05/03 02:53:07;;;;;;;27.15;14.95;;;;;;;9.92;82.08;100871.59;6244886;23;20066;-74
2022/05/03 02:55:58;;;;;;;22.17;13.95;;;;;;;9.83;82.03;100875.84;6246870;23;20011;-76
2022/05/03 02:58:47;;;;;;;22.33;14.27;;;;;;;9.71;82.49;100872.34;6246441;23;20828;-74
2022/05/03 03:04:30;;;;;;;26.48;15.60;;;;;;;9.46;83.42;100870.06;6246666;23;20097;-74
2022/05/03 03:07:00;;;;;;;25.58;13.88;;;;;;;9.30;83.65;100861.63;6270913;22;20007;-72
2022/05/03 03:09:49;;;;;;;16.30;11.18;;;;;;;9.20;84.02;100861.41;6242986;23;20008;-72
2022/05/03 03:12:30;;;;;;;18.05;10.50;;;;;;;9.07;84.36;100857.13;6227348;23;20095;-73
2022/05/03 03:15:08;;;;;;;17.40;10.55;;;;;;;9.07;84.57;100859.84;6244159;22;20006;-73
2022/05/03 03:17:42;;;;;;;19.33;11.57;;;;;;;8.87;84.37;100842.03;6241555;23;20095;-72
2022/05/03 03:20:09;;;;;;;29.13;16.30;;;;;;;8.98;85.59;100869.50;6265975;22;20016;-72
2022/05/03 03:22:43;;;;;;;23.20;14.02;;;;;;;8.86;85.09;100866.81;6299626;22;20437;-75
2022/05/03 03:25:10;;;;;;;;;;;;;;;8.85;85.55;100874.19;6273887;22;20050;-74
2022/05/03 03:27:38;;;;;;;18.42;9.38;;;;;;;8.74;85.23;100867.69;6274064;22;20357;-72
2022/05/03 03:30:06;;;;;;;18.35;11.68;;;;;;;8.64;85.21;100850.31;6273352;22;20004;-73
2022/05/03 03:32:35;;;;;;;15.95;9.95;;;;;;;8.58;85.39;100845.84;6274021;22;20007;-72
2022/05/03 03:35:02;;;;;;;12.00;8.05;;;;;;;8.65;86.02;100860.16;6272064;22;19999;-71
2022/05/03 03:37:41;;;;;;;11.13;8.15;;;;;;;8.51;86.18;100849.53;6276668;22;20000;-72
2022/05/03 03:40:08;;;;;;;11.63;7.78;;;;;;;8.49;85.66;100850.84;6272531;22;20006;-72
2022/05/03 03:42:34;;;;;;;20.33;11.43;;;;;;;8.40;85.73;100842.19;6224053;22;20054;-72
2022/05/03 03:45:07;;;;;;;15.90;9.10;;;;;;;8.43;85.94;100860.78;6274362;22;20039;-71
2022/05/03 03:47:33;;;;;;;14.85;8.73;;;;;;;8.37;86.07;100856.28;6273290;22;20015;-72
2022/05/03 03:49:59;;;;;;;14.88;10.05;;;;;;;8.24;87.02;100842.94;6271918;22;20004;-72
2022/05/03 03:52:26;;;;;;;22.15;13.30;;;;;;;8.27;86.64;100861.53;6247536;22;20007;-72
2022/05/03 03:54:53;;;;;;;27.58;15.55;;;;;;;8.21;86.83;100860.59;6273956;22;20091;-73
2022/05/03 03:57:24;;;;;;;23.25;13.85;;;;;;;8.15;87.28;100854.19;6274370;22;20015;-72
2022/05/03 03:59:54;;;;;;;29.02;16.90;;;;;;;8.09;86.97;100857.88;6268602;22;20058;-74
2022/05/03 04:02:24;;;;;;;18.25;11.98;;;;;;;8.02;87.41;100846.28;6273375;22;20065;-73
2022/05/03 04:05:01;;;;;;;26.75;14.93;;;;;;;7.92;87.46;100829.72;6244920;22;20320;-73
2022/05/03 04:07:53;;;;;;;22.88;13.27;;;;;;;7.98;88.06;100862.25;6273796;22;20041;-75
2022/05/03 04:10:33;;;;;;;26.02;15.93;;;;;;;7.95;88.31;100862.75;6272236;22;20011;-73
2022/05/03 04:13:01;;;;;;;31.02;17.75;;;;;;;8.03;88.59;100864.25;6248556;22;20011;-73
2022/05/03 04:15:49;;;;;;;21.75;13.18;;;;;;;8.20;88.42;100876.09;6273036;22;20365;-73
2022/05/03 04:18:15;;;;;;;25.75;14.05;;;;;;;8.27;87.81;100865.06;6272386;22;20014;-72
2022/05/03 04:21:03;;;;;;;23.33;12.75;;;;;;;8.39;87.49;100862.31;6277812;22;20014;-73
2022/05/03 04:23:39;;;;;;;21.17;12.63;;;;;;;8.48;87.93;100865.53;6301192;22;20067;-74
2022/05/03 04:26:05;;;;;;;30.42;16.58;;;;;;;8.67;86.66;100874.34;6281763;22;20011;-72
2022/05/03 04:28:31;;;;;;;29.00;17.40;;;;;;;8.62;86.98;100855.19;6280232;22;20011;-73
2022/05/03 04:31:00;;;;;;;29.52;17.25;;;;;;;8.66;87.13;100856.34;6253325;22;20007;-73
2022/05/03 04:33:26;;;;;;;31.45;18.15;;;;;;;8.74;86.86;100858.69;6308730;22;20072;-71
2022/05/03 04:35:52;;;;;;;36.65;19.63;;;;;;;8.78;87.01;100859.03;6279282;22;20044;-74
2022/05/03 04:38:20;;;;;;;30.05;17.13;;;;;;;8.90;87.13;100874.25;6280276;22;20102;-71
2022/05/03 04:40:46;;;;;;;32.10;17.00;;;;;;;8.95;86.81;100869.97;6277663;22;20293;-72
2022/05/03 04:43:12;;;;;;;27.52;16.75;;;;;;;9.04;86.60;100874.00;6277530;22;20015;-71
2022/05/03 04:45:37;;;;;;;25.02;15.35;;;;;;;8.98;86.42;100858.56;6255893;22;20011;-72
2022/05/03 04:48:03;;;;;;;21.73;14.07;;;;;;;9.16;86.69;100874.75;6276818;22;20011;-75
2022/05/03 04:50:29;;;;;;;28.48;17.25;;;;;;;9.10;86.15;100864.81;6307614;22;19995;-75
2022/05/03 04:52:56;;;;;;;35.58;18.77;;;;;;;9.22;86.41;100871.03;6252439;22;20014;-74
2022/05/03 04:55:23;;;;;;;25.73;15.52;;;;;;;9.37;86.17;100883.28;6257280;22;20010;-74
2022/05/03 04:57:49;;;;;;;26.60;15.50;;;;;;;9.38;86.06;100874.03;6257213;22;20039;-75
2022/05/03 05:00:17;;;;;;;27.23;16.70;;;;;;;9.38;86.06;100863.94;6282509;22;20007;-75
2022/05/03 05:02:46;;;;;;;29.70;17.00;;;;;;;9.57;85.81;100883.63;6281849;22;20007;-75
2022/05/03 05:05:12;;;;;;;22.95;13.65;;;;;;;9.51;85.53;100868.25;6255646;22;20066;-75
2022/05/03 05:07:39;;;;;;;21.55;13.48;;;;;;;9.65;85.43;100876.09;6257558;22;20018;-74
2022/05/03 05:10:23;;;;;;;23.65;14.32;;;;;;;9.69;85.68;100880.81;6283176;22;20030;-74
2022/05/03 05:12:54;;;;;;;25.92;13.63;;;;;;;9.79;84.97;100880.16;6262848;22;20025;-75
2022/05/03 05:15:23;;;;;;;18.05;11.80;;;;;;;9.85;84.74;100881.06;6278163;22;20504;-74
2022/05/03 05:17:50;;;;;;;24.02;13.77;;;;;;;9.92;84.66;100889.91;6280435;22;20007;-74
2022/05/03 05:20:17;;;;;;;27.10;15.40;;;;;;;10.00;84.16;100896.84;6272402;22;20008;-75
2022/05/03 05:22:43;;;;;;;27.80;16.02;;;;;;;10.11;83.95;100904.13;6253760;22;20007;-75
2022/05/03 05:25:14;;;;;;;25.52;15.00;;;;;;;10.17;83.60;100900.38;6277945;22;20094;-76
2022/05/03 05:27:41;;;;;;;17.73;11.93;;;;;;;10.22;83.39;100908.66;6254356;22;20017;-75
2022/05/03 05:30:10;;;;;;;20.35;13.05;;;;;;;10.23;83.20;100896.63;6278118;22;20086;-76
2022/05/03 05:32:36;;;;;;;20.45;12.73;;;;;;;10.21;83.07;100887.88;6279033;22;20465;-75
2022/05/03 05:35:12;;;;;;;21.65;13.18;;;;;;;10.41;82.83;100919.31;6253773;22;20015;-75
2022/05/03 05:37:38;;;;;;;21.42;11.75;;;;;;;10.48;82.52;100920.81;6252926;22;20076;-76
2022/05/03 05:40:16;;;;;;;24.80;14.85;;;;;;;10.50;82.33;100908.75;6252792;22;20094;-75
2022/05/03 05:42:45;;;;;;;26.52;14.82;;;;;;;10.62;81.83;100931.38;6253364;22;20102;-75
2022/05/03 05:45:11;;;;;;;26.67;16.35;;;;;;;10.63;81.44;100924.78;6280909;22;20039;-75
2022/05/03 05:47:40;;;;;;;23.58;14.18;;;;;;;10.69;81.62;100931.16;6253726;22;20068;-75
2022/05/03 05:50:13;;;;;;;24.23;14.93;;;;;;;10.67;80.77;100916.91;6282288;22;20007;-75
2022/05/03 05:55:28;;;;;;;22.52;13.30;;;;;;;10.87;80.75;100933.56;6285768;22;20072;-74
2022/05/03 05:57:59;;;;;;;22.02;13.32;;;;;;;10.86;80.59;100926.44;6256733;22;20003;-75
2022/05/03 06:00:32;;;;;;;22.70;13.05;;;;;;;10.98;80.48;100939.97;6284903;22;20037;-76
2022/05/03 06:03:01;;;;;;;22.13;13.27;;;;;;;10.99;80.38;100922.50;6253496;22;20119;-74
2022/05/03 06:05:27;;;;;;;22.55;14.77;;;;;;;11.06;79.12;100931.31;6255538;22;19992;-75
2022/05/03 06:07:55;;;;;;;23.27;14.95;;;;;;;11.15;79.62;100931.69;6278263;22;20049;-75
2022/05/03 06:10:21;;;;;;;19.85;11.60;;;;;;;11.10;78.97;100923.44;6279402;22;20015;-75
2022/05/03 06:12:56;;;;;;;17.65;12.15;;;;;;;11.22;78.60;100918.63;6278144;22;20010;-74
2022/05/03 06:15:33;;;;;;;;;;;;;;;;;;;;;
2022/05/03 06:18:06;;;;;;;19.85;12.90;;;;;;;11.48;78.06;100927.91;6190294;23;20103;-78
2022/05/03 06:21:25;;;;;;;17.90;11.90;;;;;;;11.68;77.89;100949.19;6159370;23;20031;-75
2022/05/03 06:24:55;;;;;;;;;;;;;;;;;;;;;
2022/05/03 06:27:52;;;;;;;22.92;14.75;;;;;;;11.94;76.09;100946.69;6061811;23;20089;-73
2022/05/03 06:30:19;;;;;;;22.80;13.40;;;;;;;12.02;76.25;100937.97;6135931;23;20566;-73
2022/05/03 06:32:47;;;;;;;18.35;12.77;;;;;;;12.07;75.29;100928.97;6155616;23;20020;-73
2022/05/03 06:35:14;;;;;;;20.05;13.77;;;;;;;12.28;75.24;100940.91;6185087;23;20117;-72
2022/05/03 06:37:45;;;;;;;23.10;14.30;;;;;;;12.26;74.87;100932.09;6157407;23;20010;-72
2022/05/03 06:40:18;;;;;;;23.85;16.08;;;;;;;12.30;73.98;100926.91;6160487;23;20138;-73
2022/05/03 06:42:50;;;;;;;23.40;14.82;;;;;;;12.48;73.60;100950.31;6159024;23;20452;-72
2022/05/03 06:45:18;;;;;;;23.42;14.23;;;;;;;12.54;73.89;100943.78;6186583;23;20005;-74
2022/05/03 06:47:50;;;;;;;21.27;13.30;;;;;;;12.67;73.58;100946.03;6165978;23;20133;-73
2022/05/03 06:50:41;;;;;;;22.10;14.18;;;;;;;12.74;73.30;100943.88;6273025;22;20012;-73
2022/05/03 06:53:19;;;;;;;19.13;13.27;;;;;;;12.75;72.28;100940.03;6265966;22;20004;-73
2022/05/03 06:56:06;;;;;;;24.40;14.45;;;;;;;12.95;72.67;100954.09;6247771;22;20054;-74
2022/05/03 06:58:35;;;;;;;19.35;13.77;;;;;;;12.96;71.66;100933.81;6255315;22;20012;-77
2022/05/03 07:04:36;;;;;;;;;;;;;;;;;;;;;
2022/05/03 07:07:18;;;;;;;24.50;14.95;;;;;;;13.43;70.52;100958.41;6251545;22;20582;-78
2022/05/03 07:09:51;;;;;;;19.05;13.23;;;;;;;13.43;70.43;100928.19;6254235;23;20016;-78
2022/05/03 07:12:39;;;;;;;;;;;;;;;;;;;;;
2022/05/03 07:15:14;;;;;;;27.13;15.98;;;;;;;13.66;68.34;100923.22;6251814;23;20036;-75
2022/05/03 07:23:16;;;;;;;23.75;15.00;;;;;;;14.38;66.90;100961.66;6292560;22;20048;-77
2022/05/03 07:26:52;;;;;;;;;;;;;;;;;;;;;
2022/05/03 07:32:20;;;;;;;24.42;14.85;;;;;;;14.64;65.28;100942.34;6312625;22;20057;-76
2022/05/03 07:35:01;;;;;;;25.77;13.57;;;;;;;14.94;65.40;100965.38;6284236;22;20593;-76
2022/05/03 07:38:24;;;;;;;19.65;14.45;;;;;;;15.15;64.16;100983.44;6285052;22;19999;-77
2022/05/03 07:40:56;;;;;;;22.67;14.25;;;;;;;15.11;63.87;100954.81;6225571;22;20028;-77
2022/05/03 07:44:13;;;;;;;19.73;14.18;;;;;;;15.45;63.46;100981.63;6309321;22;20002;-77
2022/05/03 07:47:05;;;;;;;;;;;;;;;;;;;;;
2022/05/03 07:50:22;;;;;;;19.75;13.30;;;;;;;15.53;63.13;100933.34;6309557;22;20050;-76
2022/05/03 07:52:48;;;;;;;16.33;11.93;;;;;;;15.86;62.77;100942.75;6243953;23;20131;-77
2022/05/03 07:56:10;;;;;;;;;;;;;;;;;;;;;
2022/05/03 07:58:56;;;;;;;;;;;;;;;;;;;;;
2022/05/03 08:02:10;;;;;;;20.77;13.18;;;;;;;16.67;60.53;100971.75;6252619;23;20046;-77
2022/05/03 08:05:00;;;;;;;;;;;;;;;;;;;;;
2022/05/03 08:07:59;;;;;;;17.90;12.82;;;;;;;16.96;59.17;100979.19;6085802;23;20444;-76
2022/05/03 08:10:38;;;;;;;15.93;11.65;;;;;;;17.10;58.63;100964.34;6080786;23;20018;-78
2022/05/03 08:13:28;;;;;;;;;;;;;;;;;;;;;
2022/05/03 08:16:21;;;;;;;;;;;;;;;;;;;;;
2022/05/03 08:19:00;;;;;;;;;;;;;;;;;;;;;
2022/05/03 08:21:35;;;;;;;17.58;12.00;;;;;;;18.13;56.19;100973.00;6246163;23;20743;-76
2022/05/03 08:24:27;;;;;;;19.15;12.55;;;;;;;18.11;55.08;100958.66;6275318;22;20007;-76
2022/05/03 08:27:01;;;;;;;14.10;9.52;;;;;;;18.45;54.79;100977.69;6282274;22;20007;-75
2022/05/03 08:29:36;;;;;;;;;;;;;;;18.87;55.00;100991.59;6313368;22;20007;-76
2022/05/03 08:32:02;;;;;;;22.38;13.02;;;;;;;18.76;53.00;100965.19;6282210;22;19914;-76
2022/05/03 08:34:39;;;;;;;16.98;10.77;;;;;;;18.72;54.01;100965.00;6281768;22;20003;-76
2022/05/03 08:43:01;;;;;;;17.85;11.77;;;;;;;18.86;53.41;100995.47;6218916;23;20402;-76
2022/05/03 08:45:36;;;;;;;13.48;10.13;;;;;;;19.06;53.12;101010.06;6265106;22;20003;-76
2022/05/03 08:48:31;;;;;;;;;;;;;;;;;;;;;
2022/05/03 08:51:10;;;;;;;;;;;;;;;19.49;52.52;100996.63;6315311;22;20038;-77
2022/05/03 08:56:48;;;;;;;17.20;12.13;;;;;;;19.43;51.00;100956.25;6294826;22;20007;-77
2022/05/03 08:59:20;;;;;;;22.65;13.07;;;;;;;19.58;50.89;101004.19;6309612;22;19991;-77
2022/05/03 09:02:10;;;;;;;21.20;13.68;;;;;;;19.29;50.51;100989.59;6310427;22;20014;-76
2022/05/03 09:05:01;;;;;;;13.02;10.07;;;;;;;19.35;50.90;100995.84;6308409;22;20003;-76
2022/05/03 09:07:41;;;;;;;;;;;;;;;;;;;;;
2022/05/03 09:10:52;;;;;;;;;;;;;;;;;;;;;
2022/05/03 09:13:45;;;;;;;22.67;13.85;;;;;;;19.45;50.40;100992.00;6307068;22;20034;-77
2022/05/03 09:16:54;;;;;;;16.08;11.05;;;;;;;19.73;50.24;101011.34;6262292;22;20006;-76
2022/05/03 09:19:49;;;;;;;18.25;12.25;;;;;;;19.91;49.38;101018.69;6144008;23;20016;-77
2022/05/03 09:25:28;;;;;;;;;;;;;;;;;;;;;
2022/05/03 09:29:10;;;;;;;23.30;13.95;;;;;;;19.96;48.48;100988.06;6288192;22;20037;-77
2022/05/03 09:31:42;;;;;;;19.95;12.57;;;;;;;20.44;47.99;101024.59;6305558;22;20035;-76
2022/05/03 09:37:57;;;;;;;18.90;12.55;;;;;;;20.71;46.62;100979.16;6298111;22;20014;-77
2022/05/03 09:41:04;;;;;;;;;;;;;;;;;;;;;
2022/05/03 09:43:29;;;;;;;20.23;14.20;;;;;;;21.18;45.86;100993.34;6307750;22;20057;-77
2022/05/03 09:46:30;;;;;;;;;;;;;;;;;;;;;
2022/05/03 09:49:35;;;;;;;;;;;;;;;;;;;;;
2022/05/03 09:55:29;;;;;;;15.23;9.57;;;;;;;22.09;43.87;101004.69;6287979;22;20050;-76
2022/05/03 09:58:24;;;;;;;13.05;9.45;;;;;;;22.11;44.34;100982.88;6284790;22;20093;-76
2022/05/03 10:01:04;;;;;;;12.48;8.80;;;;;;;22.34;43.77;100981.88;6286231;22;20005;-77
2022/05/03 10:03:44;;;;;;;14.65;10.10;;;;;;;22.70;43.54;101017.66;6313845;22;19979;-76
2022/05/03 10:10:06;;;;;;;19.08;13.00;;;;;;;23.09;42.44;101017.63;6195397;23;20009;-76
2022/05/03 10:12:59;;;;;;;18.37;11.33;;;;;;;23.02;41.79;100993.84;6193501;23;20116;-76
2022/05/03 10:22:13;;;;;;;24.48;14.38;;;;;;;24.09;39.58;101003.09;6311368;22;20022;-77
2022/05/03 10:24:53;;;;;;;18.80;12.65;;;;;;;24.02;39.58;100998.06;6259993;22;20066;-76
2022/05/03 10:28:25;;;;;;;;;;;;;;;;;;;;;
2022/05/03 10:32:00;;;;;;;19.80;13.00;;;;;;;24.83;38.24;101020.84;6254310;22;20034;-76
2022/05/03 10:34:56;;;;;;;14.23;7.10;;;;;;;25.38;37.87;101017.84;6149939;23;20348;-77
2022/05/03 10:37:33;;;;;;;19.60;12.73;;;;;;;25.55;36.84;101017.56;6187395;23;20379;-77
2022/05/03 10:40:12;;;;;;;15.73;10.55;;;;;;;25.88;36.73;101007.28;6310692;22;20015;-75
2022/05/03 10:43:07;;;;;;;19.52;12.90;;;;;;;26.30;35.75;101018.09;6288925;22;20060;-76
2022/05/03 10:45:51;;;;;;;17.02;11.00;;;;;;;26.77;35.07;100996.88;6311115;22;20007;-77
2022/05/03 10:48:43;;;;;;;;;;;;;;;;;;;;;
2022/05/03 10:51:21;;;;;;;;;;;;;;;;;;;;;
2022/05/03 10:54:01;;;;;;;16.02;11.27;;;;;;;29.27;31.42;101009.84;6311106;22;20031;-76
2022/05/03 10:57:08;;;;;;;17.23;11.93;;;;;;;29.86;30.03;101017.88;6311603;22;20425;-76
2022/05/03 11:00:09;;;;;;;16.33;9.68;;;;;;;30.16;29.52;100977.53;6287042;22;19999;-77
2022/05/03 11:06:40;;;;;;;11.13;7.55;;;;;;;33.34;26.10;100988.88;6130102;23;20010;-77
2022/05/03 11:10:16;;;;;;;;;;;;;;;;;;;;;
2022/05/03 11:13:33;;;;;;;8.80;6.82;;;;;;;35.06;24.54;100977.63;6127839;23;20033;-78
2022/05/03 11:16:44;;;;;;;;;;;;;;;;;;;;;
2022/05/03 11:23:08;;;;;;;9.27;6.75;;;;;;;34.40;24.11;100966.06;6193589;23;20044;-78
2022/05/03 11:25:48;;;;;;;15.27;9.07;;;;;;;33.29;24.38;100958.13;6245906;22;20007;-78
2022/05/03 11:28:37;;;;;;;10.15;7.78;;;;;;;32.99;25.03;100990.56;6281881;22;20007;-74
2022/05/03 11:31:31;;;;;;;15.32;10.07;;;;;;;32.21;24.70;100986.50;6279496;22;20011;-74
2022/05/03 11:34:06;;;;;;;12.38;9.55;;;;;;;31.66;25.54;100982.69;6267032;22;20011;-75
2022/05/03 11:36:37;;;;;;;14.73;10.52;;;;;;;31.45;25.30;100958.75;6279822;22;20010;-75
2022/05/03 11:39:54;;;;;;;;;;;;;;;;;;;;;
2022/05/03 11:42:44;;;;;;;10.23;8.35;;;;;;;31.76;25.96;100979.09;6256475;22;20486;-74
2022/05/03 11:45:24;;;;;;;11.38;8.02;;;;;;;31.94;25.79;100976.31;6308355;22;20010;-74
2022/05/03 11:47:52;;;;;;;13.52;9.75;;;;;;;32.16;25.46;100974.34;6309452;22;20285;-74
2022/05/03 11:56:45;;;;;;;11.48;8.15;;;;;;;32.20;24.90;100963.06;6303435;22;20018;-74
2022/05/03 11:59:12;;;;;;;13.50;9.00;;;;;;;32.10;24.20;100950.47;6294576;22;19995;-74
2022/05/03 12:01:38;;;;;;;16.73;10.45;;;;;;;32.29;23.94;100943.66;6308006;22;20010;-75
2022/05/03 12:04:14;;;;;;;8.50;6.50;;;;;;;32.76;24.03;100960.66;6284279;22;20015;-75
2022/05/03 12:25:14;;;;;;;;;;;;;;;;;;;;;
2022/05/03 12:28:50;;;;;;;12.20;8.35;;;;;;;33.31;23.28;100950.84;5849419;24;20042;-75
2022/05/03 12:35:27;;;;;;;13.77;9.80;;;;;;;32.98;23.35;100949.28;5901533;24;20025;-74
2022/05/03 13:03:59;;;;;;;;;;;;;;;;;;;;;
2022/05/03 13:13:24;;;;;;;15.65;9.63;;;;;;;31.62;24.76;100908.38;5901687;24;20772;-74
2022/05/03 13:16:32;;;;;;;12.90;8.82;;;;;;;31.43;24.95;100904.66;5926168;23;20035;-73
2022/05/03 13:19:45;;;;;;;18.85;11.85;;;;;;;31.02;24.83;100919.00;6072980;23;20095;-73
2022/05/03 13:22:11;;;;;;;9.07;6.90;;;;;;;30.53;25.51;100898.47;6091321;23;20378;-71
2022/05/03 13:24:39;;;;;;;14.93;9.20;;;;;;;30.57;25.17;100899.31;6131598;23;20051;-71
2022/05/03 13:28:16;;;;;;;19.17;9.23;;;;;;;30.88;24.93;100907.59;6163800;23;20012;-71
2022/05/03 13:31:09;;;;;;;15.35;10.48;;;;;;;30.65;24.86;100903.03;6243109;22;20007;-70
2022/05/03 13:34:11;;;;;;;12.73;8.85;;;;;;;30.76;25.09;100892.59;6216094;23;20015;-71
2022/05/03 13:50:40;;;;;;;16.23;9.27;;;;;;;30.51;25.07;100888.81;6009992;23;20372;-72
2022/05/03 13:59:21;;;;;;;13.73;9.10;;;;;;;30.08;25.63;100884.41;5940726;24;20015;-73
2022/05/03 14:12:14;;;;;;;;;;;;;;;;;;;;;
2022/05/03 14:15:29;;;;;;;;;;;;;;;;;;;;;
2022/05/03 14:21:40;;;;;;;7.72;6.00;;;;;;;28.67;27.51;100858.56;6070225;23;20018;-73
2022/05/03 14:28:31;;;;;;;;;;;;;;;;;;;;;
2022/05/03 14:31:43;;;;;;;;;;;;;;;;;;;;;
2022/05/03 14:50:47;;;;;;;;;;;;;;;;;;;;;
2022/05/03 14:54:19;;;;;;;;;;;;;;;;;;;;;
2022/05/03 15:03:40;;;;;;;17.52;10.52;;;;;;;26.35;30.26;100843.19;6317320;22;20032;-75
2022/05/03 15:10:21;;;;;;;;;;;;;;;;;;;;;
2022/05/03 15:13:53;;;;;;;;;;;;;;;;;;;;;
2022/05/03 15:16:19;;;;;;;7.80;5.80;;;;;;;28.82;27.38;100825.81;6274392;22;20034;-76
2022/05/03 15:18:45;;;;;;;10.43;6.88;;;;;;;29.03;27.35;100811.19;6288866;22;19995;-75
2022/05/03 15:21:13;;;;;;;11.63;8.15;;;;;;;29.29;26.58;100821.59;6286009;22;20003;-75
2022/05/03 15:26:55;;;;;;;9.25;7.03;;;;;;;29.48;26.66;100808.50;6288640;22;20096;-76
2022/05/03 15:30:04;;;;;;;13.18;8.48;;;;;;;29.64;26.17;100836.44;6314069;22;19996;-76
2022/05/03 15:32:39;;;;;;;9.77;5.57;;;;;;;29.39;26.87;100837.00;6286184;22;20014;-76
2022/05/03 15:35:50;;;;;;;15.50;9.18;;;;;;;29.23;26.74;100834.38;6312777;22;19988;-75
2022/05/03 15:38:28;;;;;;;;;;;;;;;;;;;;;
2022/05/03 15:41:35;;;;;;;13.10;8.73;;;;;;;28.87;26.78;100822.69;6290328;22;20031;-77
2022/05/03 15:44:11;;;;;;;;;;;;;;;;;;;;;
2022/05/03 15:50:25;;;;;;;12.50;8.55;;;;;;;27.49;28.25;100799.16;6288558;22;20014;-74
2022/05/03 15:53:22;;;;;;;;;;;;;;;;;;;;;
2022/05/03 15:56:26;;;;;;;12.82;7.68;;;;;;;26.77;29.19;100792.91;6254346;23;20019;-75
2022/05/03 16:00:01;;;;;;;10.57;7.03;;;;;;;27.69;29.07;100823.22;6273889;22;20026;-76
2022/05/03 16:02:52;;;;;;;;;;;;;;;;;;;;;
2022/05/03 16:05:18;;;;;;;10.02;5.43;;;;;;;29.10;27.14;100807.66;6252825;23;20023;-75
2022/05/03 16:08:03;;;;;;;;;;;;;;;;;;;;;
2022/05/03 16:13:53;;;;;;;13.97;9.53;;;;;;;28.24;27.05;100804.47;6197262;23;20012;-76
2022/05/03 16:16:57;;;;;;;15.23;9.90;;;;;;;27.66;27.53;100778.22;6249387;22;20052;-75
2022/05/03 16:19:25;;;;;;;9.13;6.28;;;;;;;27.70;28.25;100779.09;6254394;22;20463;-77
2022/05/03 16:22:44;;;;;;;;;;;;;;;;;;;;;
2022/05/03 16:25:18;;;;;;;13.00;8.30;;;;;;;27.39;27.95;100796.97;6249807;22;20031;-77
2022/05/03 16:31:06;;;;;;;9.60;6.88;;;;;;;26.84;28.78;100806.28;6241667;22;20004;-75
2022/05/03 16:34:28;;;;;;;10.25;7.47;;;;;;;26.33;29.43;100775.47;6251830;22;20000;-74
2022/05/03 16:42:49;;;;;;;10.07;5.65;;;;;;;25.96;30.18;100793.38;6252126;23;20034;-75
2022/05/03 16:45:14;;;;;;;15.18;7.80;;;;;;;25.95;30.54;100789.78;6254025;22;20016;-76
2022/05/03 16:47:43;;;;;;;7.32;5.93;;;;;;;25.89;30.31;100785.63;6252180;23;20039;-75
2022/05/03 16:50:19;;;;;;;;;;;;;;;;;;;;;
2022/05/03 16:56:12;;;;;;;;;;;;;;;;;;;;;
2022/05/03 17:01:47;;;;;;;12.65;7.18;;;;;;;25.01;30.99;100772.44;6290256;22;20003;-76
2022/05/03 17:04:21;;;;;;;8.50;5.35;;;;;;;24.70;31.43;100781.56;6311803;22;20074;-76
2022/05/03 17:07:03;;;;;;;;;;;;;;;;;;;;;
2022/05/03 17:09:59;;;;;;;;;;;;;;;;;;;;;
2022/05/03 17:12:53;;;;;;;;;;;;;;;;;;;;;
2022/05/03 17:18:44;;;;;;;;;;;;;;;;;;;;;
2022/05/03 17:21:10;;;;;;;6.40;4.15;;;;;;;23.66;33.08;100756.66;6292694;22;20039;-76
2022/05/03 17:23:46;;;;;;;6.13;4.57;;;;;;;23.40;33.01;100729.88;6320424;22;20165;-75
2022/05/03 17:27:17;;;;;;;7.38;5.07;;;;;;;23.56;33.31;100771.06;6304551;22;20017;-77
2022/05/03 17:29:37;;;;;;;;;;;;;;;;;;;;;
2022/05/03 17:32:17;;;;;;;;;;;;;;;;;;;;;
2022/05/03 17:34:44;;;;;;;5.18;3.78;;;;;;;22.83;34.33;100748.94;6307095;22;20007;-76
2022/05/03 17:37:11;;;;;;;8.63;6.45;;;;;;;22.37;35.11;100714.59;6262915;22;20052;-75
2022/05/03 17:40:16;;;;;;;;;;;;;;;;;;;;;
2022/05/03 17:42:49;;;;;;;10.93;7.68;;;;;;;21.37;36.15;100739.09;6302000;22;20034;-77
2022/05/03 17:45:27;;;;;;;;;;;;;;;;;;;;;